Time;durP1;ratioP1;P1;durP2;ratioP2;P2;SDS_P1;SDS_P2;PMS_P1;PMS_P2;Temp;Humidity;BMP_temperature;BMP_pressure;BME280_temperature;BME280_humidity;BME280_pressure;Samples;Min_cycle;Max_cycle;Signal;HPM_P1;HPM_P2
2022/01/26 00:00:55;;;;;;;22.85;11.27;;;3.10;91.10;;;;;;5029582;28;20105;-82
2022/01/26 00:06:09;;;;;;;24.60;11.95;;;3.10;91.10;;;;;;4996271;28;20102;-82
2022/01/26 00:08:36;;;;;;;27.35;12.70;;;3.10;91.10;;;;;;5034907;28;20098;-82
2022/01/26 00:11:01;;;;;;;23.08;12.10;;;3.10;91.10;;;;;;4998679;28;20033;-82
2022/01/26 00:13:27;;;;;;;29.13;13.13;;;3.20;91.20;;;;;;4997773;28;20036;-82
2022/01/26 00:15:53;;;;;;;24.98;11.30;;;3.20;91.10;;;;;;5010952;28;20033;-82
2022/01/26 00:18:21;;;;;;;27.13;11.55;;;3.10;91.10;;;;;;5022640;28;20024;-82
2022/01/26 00:20:55;;;;;;;24.05;11.15;;;3.10;91.20;;;;;;5007194;28;20039;-81
2022/01/26 00:23:48;;;;;;;25.70;11.57;;;3.10;91.20;;;;;;5028499;28;20048;-82
2022/01/26 00:26:09;;;;;;;25.25;12.18;;;3.10;91.10;;;;;;4997903;28;20041;-82
2022/01/26 00:28:57;;;;;;;26.42;12.60;;;3.10;91.50;;;;;;5031597;28;20036;-82
2022/01/26 00:38:32;;;;;;;29.88;12.05;;;3.10;91.10;;;;;;4992426;28;20032;-82
2022/01/26 00:39:48;;;;;;;24.65;11.90;;;3.10;91.10;;;;;;5031960;28;20063;-82
2022/01/26 00:42:14;;;;;;;24.70;12.18;;;3.10;91.10;;;;;;5029482;28;20061;-81
2022/01/26 00:44:44;;;;;;;27.95;12.48;;;3.10;91.10;;;;;;5014597;28;20086;-81
2022/01/26 00:47:10;;;;;;;28.95;11.48;;;3.10;91.20;;;;;;4992828;28;20029;-82
2022/01/26 00:49:36;;;;;;;26.60;11.98;;;3.10;91.20;;;;;;5024782;28;20029;-82
2022/01/26 00:52:05;;;;;;;25.15;11.43;;;3.10;91.10;;;;;;5057586;28;20033;-82
2022/01/26 00:54:31;;;;;;;24.02;11.75;;;3.00;91.10;;;;;;5019936;28;20029;-85
2022/01/26 00:56:56;;;;;;;26.30;11.75;;;3.00;91.20;;;;;;4994140;28;20128;-81
2022/01/26 00:59:22;;;;;;;26.73;13.15;;;3.00;91.10;;;;;;4997399;28;20108;-81
2022/01/26 01:01:48;;;;;;;23.85;10.25;;;3.00;91.10;;;;;;5012553;28;20112;-81
2022/01/26 01:04:13;;;;;;;22.15;10.50;;;3.00;91.10;;;;;;5045623;28;20459;-82
2022/01/26 01:06:50;;;;;;;19.45;9.90;;;3.00;91.10;;;;;;4992761;28;20028;-82
2022/01/26 01:09:17;;;;;;;21.60;10.85;;;3.00;91.10;;;;;;5046414;28;20051;-83
2022/01/26 01:11:43;;;;;;;24.23;11.38;;;3.00;91.10;;;;;;5019327;28;20032;-83
2022/01/26 01:14:09;;;;;;;21.95;10.13;;;3.00;91.20;;;;;;5005760;28;20071;-82
2022/01/26 01:16:34;;;;;;;25.35;11.10;;;2.90;91.10;;;;;;4984218;28;20040;-81
2022/01/26 01:19:13;;;;;;;23.77;10.90;;;2.90;91.10;;;;;;4995034;28;20025;-81
2022/01/26 01:24:38;;;;;;;20.73;10.32;;;2.90;91.10;;;;;;5023344;28;20029;-81
2022/01/26 01:29:58;;;;;;;21.30;10.10;;;2.90;91.10;;;;;;5030565;28;20156;-82
2022/01/26 01:32:33;;;;;;;20.38;10.25;;;2.90;91.10;;;;;;4999880;28;20075;-82
2022/01/26 01:35:00;;;;;;;20.67;9.68;;;2.90;91.10;;;;;;5007612;28;20049;-82
2022/01/26 01:37:25;;;;;;;22.15;9.98;;;2.90;91.10;;;;;;5023526;28;20524;-83
2022/01/26 01:39:51;;;;;;;22.13;10.10;;;2.90;91.00;;;;;;4971828;28;20052;-82
2022/01/26 01:42:16;;;;;;;22.08;9.73;;;2.90;91.00;;;;;;5010654;28;20017;-82
2022/01/26 01:44:42;;;;;;;20.98;9.93;;;2.90;91.10;;;;;;5014151;28;20029;-83
2022/01/26 01:47:08;;;;;;;21.95;9.75;;;2.90;91.10;;;;;;5032327;28;20075;-82
2022/01/26 01:49:34;;;;;;;20.48;9.85;;;2.90;91.10;;;;;;5041332;28;20075;-82
2022/01/26 01:52:03;;;;;;;16.58;9.13;;;2.80;91.00;;;;;;5024652;28;20026;-82
2022/01/26 01:54:29;;;;;;;18.73;9.95;;;2.90;91.10;;;;;;5017015;28;20181;-82
2022/01/26 01:56:57;;;;;;;20.10;10.00;;;2.80;91.00;;;;;;5004534;28;20812;-82
2022/01/26 01:59:23;;;;;;;24.45;10.23;;;2.90;91.10;;;;;;5009034;28;20128;-81
2022/01/26 02:01:49;;;;;;;21.23;9.70;;;2.80;91.10;;;;;;4999573;28;20094;-82
2022/01/26 02:04:15;;;;;;;21.45;9.93;;;2.90;91.10;;;;;;5022132;28;20033;-81
2022/01/26 02:06:43;;;;;;;24.60;11.23;;;2.90;91.10;;;;;;4993554;28;20028;-82
2022/01/26 02:09:09;;;;;;;23.65;10.52;;;2.90;91.10;;;;;;5014681;28;20033;-81
2022/01/26 02:11:34;;;;;;;17.55;9.60;;;2.90;91.10;;;;;;5028819;28;20087;-82
2022/01/26 02:14:08;;;;;;;21.42;9.95;;;2.90;91.10;;;;;;4993024;28;20483;-82
2022/01/26 02:16:44;;;;;;;19.60;10.02;;;2.90;91.00;;;;;;5039477;28;20237;-82
2022/01/26 02:19:58;;;;;;;18.02;9.20;;;2.90;91.00;;;;;;5024836;28;20037;-81
2022/01/26 02:52:41;;;;;;;18.48;9.25;;;2.80;91.00;;;;;;5018431;28;20052;-80
2022/01/26 03:05:02;;;;;;;22.95;10.60;;;2.90;91.30;;;;;;5016865;28;20027;-81
2022/01/26 03:07:45;;;;;;;22.52;10.70;;;2.90;90.90;;;;;;5027689;28;20040;-81
2022/01/26 03:10:56;;;;;;;24.15;10.90;;;2.90;90.90;;;;;;5045540;28;20526;-81
2022/01/26 03:13:25;;;;;;;22.85;10.80;;;2.80;90.90;;;;;;5007705;28;20033;-81
2022/01/26 03:15:51;;;;;;;20.10;10.63;;;2.90;90.90;;;;;;5045130;28;20029;-81
2022/01/26 03:21:04;;;;;;;26.38;11.35;;;2.90;90.90;;;;;;5009982;28;20079;-81
2022/01/26 03:34:11;;;;;;;24.35;10.98;;;2.80;90.90;;;;;;5028281;28;20439;-81
2022/01/26 03:36:50;;;;;;;24.67;12.20;;;2.80;90.90;;;;;;5010333;28;20037;-81
2022/01/26 03:39:16;;;;;;;27.90;13.25;;;2.80;90.90;;;;;;5004347;28;20056;-81
2022/01/26 03:41:48;;;;;;;26.08;12.23;;;2.80;90.90;;;;;;5020470;28;20041;-81
2022/01/26 03:44:14;;;;;;;22.33;11.90;;;2.80;90.80;;;;;;5045495;28;20406;-81
2022/01/26 03:46:40;;;;;;;30.17;13.05;;;2.80;90.80;;;;;;5008477;28;20029;-81
2022/01/26 03:49:05;;;;;;;31.33;13.73;;;2.80;90.90;;;;;;5029551;28;20052;-81
2022/01/26 03:51:31;;;;;;;26.55;12.07;;;2.80;90.90;;;;;;5012080;28;20554;-81
2022/01/26 03:53:57;;;;;;;26.50;12.13;;;2.80;90.90;;;;;;5012451;28;20116;-81
2022/01/26 03:56:22;;;;;;;30.40;13.23;;;2.80;90.90;;;;;;4985439;28;20116;-81
2022/01/26 03:58:48;;;;;;;27.02;12.48;;;2.80;90.90;;;;;;5016979;28;20554;-81
2022/01/26 04:01:14;;;;;;;25.77;11.82;;;2.80;90.90;;;;;;5015955;28;20045;-81
2022/01/26 04:03:39;;;;;;;30.80;13.10;;;2.80;90.90;;;;;;5028132;28;20086;-81
2022/01/26 04:06:05;;;;;;;27.15;12.52;;;2.80;90.90;;;;;;5029590;28;20604;-81
2022/01/26 04:08:32;;;;;;;29.23;14.00;;;2.80;90.90;;;;;;5012951;28;20033;-81
2022/01/26 04:13:42;;;;;;;28.30;11.90;;;2.70;90.80;;;;;;5027786;28;20027;-81
2022/01/26 04:16:08;;;;;;;31.58;13.68;;;2.80;90.90;;;;;;4996946;28;20033;-81
2022/01/26 04:18:37;;;;;;;30.60;12.57;;;2.70;90.80;;;;;;5009558;28;20029;-81
2022/01/26 04:21:16;;;;;;;30.20;13.50;;;2.70;90.80;;;;;;5005889;28;20033;-80
2022/01/26 04:26:12;;;;;;;86.95;65.25;;;2.70;90.80;;;;;;4994467;28;20535;-81
2022/01/26 04:28:47;;;;;;;31.42;14.63;;;2.70;90.80;;;;;;5024889;28;20029;-82
2022/01/26 04:31:13;;;;;;;28.52;13.82;;;2.70;90.80;;;;;;5017485;28;20044;-83
2022/01/26 04:33:38;;;;;;;28.70;13.52;;;2.70;90.80;;;;;;5026078;28;20037;-81
2022/01/26 04:36:08;;;;;;;28.00;13.23;;;2.70;90.80;;;;;;5016898;28;20029;-82
2022/01/26 04:38:42;;;;;;;32.25;14.73;;;2.70;90.80;;;;;;5030937;28;20048;-83
2022/01/26 04:43:40;;;;;;;32.47;16.27;;;2.70;90.80;;;;;;5014714;28;20040;-82
2022/01/26 04:46:07;;;;;;;26.95;12.45;;;2.70;90.80;;;;;;5029845;28;20570;-82
2022/01/26 04:48:32;;;;;;;25.77;12.55;;;2.70;90.80;;;;;;5044094;28;20036;-82
2022/01/26 04:50:58;;;;;;;27.98;13.38;;;2.70;90.80;;;;;;5029887;28;20052;-82
2022/01/26 04:53:23;;;;;;;29.45;14.30;;;2.70;91.10;;;;;;5026744;28;20044;-82
2022/01/26 04:55:49;;;;;;;28.13;12.90;;;2.70;90.80;;;;;;5009834;28;20040;-82
2022/01/26 04:58:14;;;;;;;28.38;13.77;;;2.70;90.80;;;;;;5040134;28;20041;-82
2022/01/26 05:00:40;;;;;;;21.95;11.75;;;2.70;90.80;;;;;;5007263;28;20033;-83
2022/01/26 05:03:05;;;;;;;25.08;13.70;;;2.70;90.70;;;;;;5042893;28;20032;-82
2022/01/26 05:05:31;;;;;;;19.63;9.82;;;2.70;90.80;;;;;;5023318;28;20220;-82
2022/01/26 05:07:56;;;;;;;22.13;10.70;;;2.70;90.80;;;;;;5041628;28;20054;-82
2022/01/26 05:10:22;;;;;;;23.30;9.90;;;2.70;90.80;;;;;;5030102;28;20063;-82
2022/01/26 05:12:48;;;;;;;23.60;11.30;;;2.70;90.80;;;;;;5036831;28;20056;-81
2022/01/26 05:15:14;;;;;;;26.50;12.05;;;2.70;90.80;;;;;;5021655;28;20025;-81
2022/01/26 05:17:41;;;;;;;21.92;11.20;;;2.80;90.80;;;;;;5042373;28;20159;-81
2022/01/26 05:20:08;;;;;;;24.15;11.38;;;2.70;90.80;;;;;;5017296;28;20036;-81
2022/01/26 05:22:34;;;;;;;23.10;10.77;;;2.70;90.80;;;;;;5002868;28;20037;-81
2022/01/26 05:25:00;;;;;;;21.25;9.90;;;2.80;90.90;;;;;;5019137;28;20041;-81
2022/01/26 05:27:26;;;;;;;20.83;10.52;;;2.70;90.80;;;;;;5008028;28;20044;-81
2022/01/26 05:29:51;;;;;;;23.05;10.73;;;2.70;90.80;;;;;;5023893;28;20037;-81
2022/01/26 05:32:17;;;;;;;25.40;10.73;;;2.70;90.70;;;;;;4998613;28;20029;-82
2022/01/26 05:34:42;;;;;;;23.20;10.90;;;2.70;90.70;;;;;;5019280;28;20460;-82
2022/01/26 05:37:08;;;;;;;22.70;10.00;;;2.70;90.70;;;;;;5022811;28;20036;-82
2022/01/26 05:39:34;;;;;;;23.95;11.13;;;2.70;90.70;;;;;;5004406;28;20060;-82
2022/01/26 05:42:03;;;;;;;23.52;10.60;;;2.70;90.70;;;;;;5016188;28;20059;-82
2022/01/26 05:44:29;;;;;;;20.25;10.23;;;2.70;90.70;;;;;;5021457;28;20091;-81
2022/01/26 05:46:55;;;;;;;22.85;10.63;;;2.70;90.70;;;;;;5033496;28;20564;-82
2022/01/26 05:49:20;;;;;;;21.23;10.60;;;2.60;90.60;;;;;;4989499;28;20416;-83
2022/01/26 05:51:46;;;;;;;17.30;9.40;;;2.60;90.70;;;;;;5002527;28;20045;-84
2022/01/26 05:54:13;;;;;;;24.35;11.43;;;2.60;90.70;;;;;;5025820;28;20067;-86
2022/01/26 05:56:39;;;;;;;24.90;10.52;;;2.60;90.70;;;;;;4994333;28;20874;-83
2022/01/26 05:59:04;;;;;;;21.33;9.85;;;2.60;91.00;;;;;;4949067;28;20034;-83
2022/01/26 06:01:30;;;;;;;21.98;10.60;;;2.60;90.60;;;;;;5010146;28;20083;-82
2022/01/26 06:03:55;;;;;;;23.42;11.20;;;2.60;90.60;;;;;;5000275;28;20029;-84
2022/01/26 06:06:21;;;;;;;19.02;9.45;;;2.60;90.70;;;;;;5038345;28;20450;-84
2022/01/26 06:08:46;;;;;;;21.88;9.98;;;2.60;90.70;;;;;;5001378;28;20088;-82
2022/01/26 06:11:12;;;;;;;23.55;10.25;;;2.60;90.60;;;;;;5015415;28;20080;-85
2022/01/26 06:13:38;;;;;;;19.60;8.63;;;2.60;90.60;;;;;;5007801;28;20113;-83
2022/01/26 06:16:03;;;;;;;18.52;9.38;;;2.60;90.60;;;;;;5024804;28;20080;-83
2022/01/26 06:18:29;;;;;;;21.52;9.63;;;2.60;90.60;;;;;;4994282;28;20032;-83
2022/01/26 06:20:55;;;;;;;23.60;11.75;;;2.60;90.60;;;;;;5052403;28;20033;-83
2022/01/26 06:23:24;;;;;;;28.80;13.00;;;2.60;90.70;;;;;;5027018;28;20075;-82
2022/01/26 06:25:51;;;;;;;24.23;10.93;;;2.60;90.60;;;;;;5011383;28;20030;-84
2022/01/26 06:28:17;;;;;;;20.85;9.73;;;2.60;90.60;;;;;;5040091;28;20025;-84
2022/01/26 06:30:44;;;;;;;19.75;9.77;;;2.60;90.60;;;;;;5032868;28;20630;-85
2022/01/26 06:33:10;;;;;;;27.25;10.10;;;2.60;90.60;;;;;;5018322;28;20383;-84
2022/01/26 06:35:36;;;;;;;20.70;10.15;;;2.60;90.60;;;;;;5016728;28;20041;-82
2022/01/26 06:38:02;;;;;;;20.88;10.40;;;2.60;90.60;;;;;;5016272;28;20140;-82
2022/01/26 06:40:28;;;;;;;20.35;9.38;;;2.50;90.60;;;;;;5012850;28;20053;-82
2022/01/26 06:42:57;;;;;;;23.40;10.45;;;2.50;90.60;;;;;;5012745;28;20115;-83
2022/01/26 06:45:26;;;;;;;22.50;10.38;;;2.50;90.60;;;;;;5009300;28;20075;-83
2022/01/26 06:48:15;;;;;;;23.38;11.07;;;2.50;90.60;;;;;;5028917;28;20179;-85
2022/01/26 06:50:41;;;;;;;26.10;12.00;;;2.50;90.60;;;;;;5014872;28;20043;-83
2022/01/26 06:53:06;;;;;;;24.65;11.88;;;2.50;90.60;;;;;;5000176;28;20100;-82
2022/01/26 06:55:32;;;;;;;26.27;11.77;;;2.50;90.50;;;;;;5041473;28;20473;-82
2022/01/26 06:57:57;;;;;;;25.40;10.73;;;2.50;90.50;;;;;;5034588;28;20037;-82
2022/01/26 07:00:23;;;;;;;24.98;10.30;;;2.50;90.60;;;;;;5002780;28;20063;-83
2022/01/26 07:02:48;;;;;;;29.30;13.48;;;2.50;90.60;;;;;;5033540;28;20096;-83
2022/01/26 07:05:14;;;;;;;26.20;11.40;;;2.50;90.60;;;;;;5049699;28;20572;-85
2022/01/26 07:07:40;;;;;;;26.30;11.60;;;2.50;90.60;;;;;;5033646;28;20029;-83
2022/01/26 07:10:06;;;;;;;20.30;9.35;;;2.50;90.50;;;;;;5021800;28;20128;-83
2022/01/26 07:12:32;;;;;;;23.40;10.95;;;2.50;90.50;;;;;;5035654;28;20021;-83
2022/01/26 07:23:07;;;;;;;20.77;9.18;;;2.50;90.50;;;;;;5023055;28;20059;-83
2022/01/26 07:25:33;;;;;;;33.97;13.23;;;2.50;90.60;;;;;;5016825;28;20029;-84
2022/01/26 07:28:01;;;;;;;40.55;17.17;;;2.50;90.60;;;;;;5029580;28;20043;-82
2022/01/26 07:30:27;;;;;;;28.80;13.80;;;2.50;90.60;;;;;;5038273;28;20042;-83
2022/01/26 07:32:52;;;;;;;20.90;10.00;;;2.50;90.60;;;;;;5022073;28;20591;-82
2022/01/26 07:35:18;;;;;;;20.60;11.27;;;2.50;90.60;;;;;;5026630;28;20591;-83
2022/01/26 07:37:45;;;;;;;34.25;16.13;;;2.50;90.60;;;;;;5038082;28;20435;-84
2022/01/26 07:40:11;;;;;;;28.27;13.48;;;2.50;90.60;;;;;;5055294;28;20519;-83
2022/01/26 07:42:36;;;;;;;25.08;11.80;;;2.50;90.60;;;;;;5001896;28;20041;-84
2022/01/26 07:45:03;;;;;;;28.35;12.65;;;2.50;90.60;;;;;;5022520;28;20036;-84
2022/01/26 07:47:31;;;;;;;23.63;11.27;;;2.50;90.60;;;;;;4992662;28;20037;-84
2022/01/26 07:49:58;;;;;;;18.02;9.77;;;2.50;90.60;;;;;;5041294;28;20063;-85
2022/01/26 07:52:25;;;;;;;15.27;6.95;;;2.50;90.60;;;;;;5033038;28;20049;-84
2022/01/26 07:54:52;;;;;;;18.85;9.27;;;2.50;90.60;;;;;;5038279;28;20511;-84
2022/01/26 07:57:19;;;;;;;22.33;9.15;;;2.50;90.60;;;;;;5033709;28;20048;-83
2022/01/26 07:59:44;;;;;;;19.77;9.05;;;2.50;90.60;;;;;;5020757;28;20395;-83
2022/01/26 08:02:10;;;;;;;22.27;9.50;;;2.50;90.60;;;;;;5039260;28;20041;-85
2022/01/26 08:04:35;;;;;;;17.33;8.32;;;2.50;90.60;;;;;;5021330;28;20137;-83
2022/01/26 08:07:01;;;;;;;16.75;8.13;;;2.50;90.60;;;;;;5039788;28;20057;-83
2022/01/26 08:09:26;;;;;;;16.35;8.35;;;2.50;90.60;;;;;;5034338;28;20098;-84
2022/01/26 08:11:52;;;;;;;14.57;7.65;;;2.50;90.60;;;;;;5015964;28;20045;-84
2022/01/26 08:14:18;;;;;;;16.85;7.35;;;2.50;90.60;;;;;;5039666;28;20043;-86
2022/01/26 08:16:44;;;;;;;14.05;7.63;;;2.50;90.60;;;;;;5022399;28;20060;-85
2022/01/26 08:19:10;;;;;;;11.77;6.57;;;2.50;90.60;;;;;;5010925;28;20044;-85
2022/01/26 08:21:36;;;;;;;15.63;8.05;;;2.50;90.60;;;;;;5043260;28;20040;-83
2022/01/26 08:24:03;;;;;;;13.82;7.40;;;2.50;90.70;;;;;;5017146;28;20045;-82
2022/01/26 08:26:39;;;;;;;13.85;7.00;;;2.50;90.60;;;;;;5052474;28;20390;-82
2022/01/26 08:29:11;;;;;;;16.35;7.38;;;2.50;90.60;;;;;;5021202;28;20106;-83
2022/01/26 08:31:37;;;;;;;13.85;7.38;;;2.50;90.70;;;;;;5053871;28;20052;-82
2022/01/26 08:34:02;;;;;;;14.93;7.25;;;2.50;90.60;;;;;;5004271;28;21560;-84
2022/01/26 08:36:28;;;;;;;12.75;6.20;;;2.50;90.70;;;;;;5031559;28;20045;-83
2022/01/26 08:38:53;;;;;;;12.77;6.45;;;2.50;90.70;;;;;;5034001;28;20036;-83
2022/01/26 08:41:19;;;;;;;14.35;6.28;;;2.50;90.60;;;;;;5018843;28;20037;-82
2022/01/26 08:43:44;;;;;;;12.85;6.55;;;2.50;90.60;;;;;;5015880;28;20048;-82
2022/01/26 08:46:10;;;;;;;11.82;6.45;;;2.50;90.60;;;;;;5013114;28;20029;-83
2022/01/26 08:48:36;;;;;;;13.48;6.28;;;2.50;90.60;;;;;;5029110;28;20033;-82
2022/01/26 08:51:01;;;;;;;11.15;5.90;;;2.50;90.60;;;;;;5021332;28;20045;-83
2022/01/26 08:53:27;;;;;;;12.43;6.15;;;2.50;90.60;;;;;;5015942;28;20045;-82
2022/01/26 08:55:52;;;;;;;11.70;6.25;;;2.50;90.60;;;;;;5001742;28;20033;-82
2022/01/26 08:58:19;;;;;;;10.60;5.95;;;2.50;90.60;;;;;;5033311;28;20114;-83
2022/01/26 09:00:44;;;;;;;11.63;6.10;;;2.50;90.60;;;;;;5019593;28;20029;-82
2022/01/26 09:03:10;;;;;;;11.43;6.13;;;2.50;90.60;;;;;;5002492;28;20041;-84
2022/01/26 09:05:35;;;;;;;12.07;5.57;;;2.50;90.60;;;;;;4993571;28;20041;-82
2022/01/26 09:08:03;;;;;;;13.60;7.63;;;2.50;90.60;;;;;;5010178;28;20041;-83
2022/01/26 09:10:30;;;;;;;13.55;6.47;;;2.50;90.60;;;;;;5003576;28;20047;-83
2022/01/26 09:12:56;;;;;;;14.43;6.95;;;2.60;90.60;;;;;;5030043;28;20033;-83
2022/01/26 09:15:27;;;;;;;13.32;6.93;;;2.60;90.60;;;;;;5030781;28;20029;-84
2022/01/26 09:17:57;;;;;;;11.07;6.63;;;2.60;90.60;;;;;;5017659;28;20059;-82
2022/01/26 09:20:22;;;;;;;12.18;6.10;;;2.60;90.60;;;;;;5020263;28;20037;-82
2022/01/26 09:22:48;;;;;;;9.55;5.55;;;2.60;90.70;;;;;;5004692;28;20101;-85
2022/01/26 09:25:13;;;;;;;10.02;5.70;;;2.60;90.60;;;;;;5028962;28;20025;-82
2022/01/26 09:27:39;;;;;;;13.18;7.07;;;2.60;90.60;;;;;;5008859;28;20503;-83
2022/01/26 09:30:05;;;;;;;14.63;7.13;;;2.60;90.60;;;;;;4988425;28;20698;-83
2022/01/26 09:32:31;;;;;;;12.10;6.07;;;2.60;90.60;;;;;;5029548;28;20030;-82
2022/01/26 09:34:56;;;;;;;12.40;7.50;;;2.60;90.60;;;;;;5013461;28;20028;-83
2022/01/26 09:37:22;;;;;;;12.82;6.80;;;2.60;90.60;;;;;;5026954;28;20037;-83
2022/01/26 09:39:47;;;;;;;18.17;8.65;;;2.60;90.60;;;;;;5003470;28;20703;-83
2022/01/26 09:42:13;;;;;;;10.55;5.72;;;2.50;90.60;;;;;;5027605;28;20490;-82
2022/01/26 09:44:39;;;;;;;31.70;12.13;;;2.60;90.60;;;;;;5030803;28;20064;-82
2022/01/26 09:47:05;;;;;;;55.45;18.95;;;2.50;90.50;;;;;;4991816;28;20099;-82
2022/01/26 09:49:33;;;;;;;13.20;6.65;;;2.60;90.60;;;;;;5016975;28;20036;-82
2022/01/26 09:52:02;;;;;;;30.48;11.80;;;2.60;90.60;;;;;;5033635;28;20064;-82
2022/01/26 09:54:30;;;;;;;27.38;10.80;;;2.60;90.60;;;;;;5023003;28;20034;-83
2022/01/26 09:57:00;;;;;;;34.10;11.73;;;2.60;90.50;;;;;;5017087;28;20092;-82
2022/01/26 09:59:26;;;;;;;12.15;5.88;;;2.60;90.50;;;;;;5011262;28;20047;-82
2022/01/26 10:01:51;;;;;;;15.75;6.90;;;2.60;90.50;;;;;;5015193;28;20029;-83
2022/01/26 10:04:29;;;;;;;16.27;6.63;;;2.70;90.60;;;;;;5032257;28;20037;-82
2022/01/26 10:15:30;;;;;;;29.48;10.20;;;2.70;90.50;;;;;;5018312;28;20069;-84
2022/01/26 10:18:12;;;;;;;36.13;16.52;;;2.70;90.50;;;;;;5005511;28;20187;-82
2022/01/26 10:20:39;;;;;;;14.10;6.38;;;2.70;90.60;;;;;;5025564;28;20041;-81
2022/01/26 10:23:06;;;;;;;18.42;7.88;;;2.70;90.60;;;;;;5005316;28;20094;-82
2022/01/26 10:25:32;;;;;;;7.82;4.47;;;2.70;90.60;;;;;;5011524;28;20029;-83
2022/01/26 10:27:57;;;;;;;9.05;4.82;;;2.70;90.50;;;;;;4999291;28;20026;-81
2022/01/26 10:30:23;;;;;;;9.30;4.97;;;2.70;90.50;;;;;;5023932;28;20220;-83
2022/01/26 10:32:48;;;;;;;10.18;4.43;;;2.70;90.50;;;;;;5017524;28;20538;-82
2022/01/26 10:35:15;;;;;;;20.33;7.95;;;2.70;90.50;;;;;;5007888;28;20061;-83
2022/01/26 10:37:55;;;;;;;12.70;5.95;;;2.60;90.50;;;;;;5016662;28;20351;-83
2022/01/26 10:40:24;;;;;;;10.38;5.40;;;2.70;90.60;;;;;;5009164;28;20120;-84
2022/01/26 10:42:58;;;;;;;8.18;4.25;;;2.70;90.50;;;;;;4993343;28;20030;-83
2022/01/26 10:45:35;;;;;;;7.55;4.07;;;2.70;90.70;;;;;;4990846;28;20037;-83
2022/01/26 10:48:20;;;;;;;7.22;3.88;;;2.70;90.60;;;;;;5001821;28;20529;-84
2022/01/26 10:51:08;;;;;;;7.63;4.28;;;2.70;90.50;;;;;;4976472;28;20775;-82
2022/01/26 10:53:37;;;;;;;6.72;3.35;;;2.70;90.50;;;;;;5013847;28;20041;-84
2022/01/26 10:56:04;;;;;;;8.40;4.25;;;2.70;90.50;;;;;;5006562;28;20031;-84
2022/01/26 10:58:30;;;;;;;7.40;3.97;;;2.80;90.50;;;;;;5014829;28;20025;-84
2022/01/26 11:00:56;;;;;;;7.47;3.03;;;2.80;90.50;;;;;;5054586;28;20608;-83
2022/01/26 11:03:21;;;;;;;6.20;3.72;;;2.80;90.50;;;;;;5000946;28;20127;-82
2022/01/26 11:05:47;;;;;;;4.93;2.97;;;2.80;90.50;;;;;;5039835;28;20025;-86
2022/01/26 11:08:12;;;;;;;4.53;3.17;;;2.80;90.50;;;;;;5035259;28;20045;-84
2022/01/26 11:10:39;;;;;;;4.68;2.60;;;2.80;90.50;;;;;;5008271;28;20056;-83
2022/01/26 11:13:05;;;;;;;4.70;2.45;;;2.80;90.50;;;;;;5012005;28;20037;-83
2022/01/26 11:15:31;;;;;;;5.95;2.85;;;2.80;90.50;;;;;;5018314;28;20045;-83
2022/01/26 11:18:07;;;;;;;3.38;2.40;;;2.80;90.50;;;;;;5001066;28;20503;-82
2022/01/26 11:20:45;;;;;;;6.80;2.72;;;2.80;90.50;;;;;;4990442;28;20141;-83
2022/01/26 11:23:10;;;;;;;6.35;3.63;;;2.80;90.50;;;;;;5034154;28;20630;-82
2022/01/26 11:25:46;;;;;;;4.82;2.53;;;2.80;90.50;;;;;;5015155;28;20042;-83
2022/01/26 11:28:19;;;;;;;5.57;2.88;;;2.80;90.40;;;;;;5027094;28;20045;-84
2022/01/26 11:30:45;;;;;;;5.18;3.15;;;2.80;90.40;;;;;;5035423;28;20043;-83
2022/01/26 11:33:15;;;;;;;4.97;2.95;;;2.80;90.40;;;;;;5004961;28;20033;-83
2022/01/26 11:35:45;;;;;;;6.63;3.50;;;2.90;90.40;;;;;;5013580;28;20393;-82
2022/01/26 11:46:59;;;;;;;5.95;3.53;;;2.90;90.30;;;;;;5043464;28;20099;-82
2022/01/26 11:49:32;;;;;;;4.32;2.90;;;3.00;90.40;;;;;;5042145;28;20469;-82
2022/01/26 11:51:57;;;;;;;5.28;2.50;;;3.00;90.30;;;;;;5023662;28;20033;-84
2022/01/26 11:54:26;;;;;;;5.05;2.80;;;3.00;90.30;;;;;;5016455;28;20055;-83
2022/01/26 11:56:54;;;;;;;5.20;3.15;;;3.00;90.30;;;;;;5036388;28;20033;-84
2022/01/26 11:59:21;;;;;;;4.13;2.80;;;3.00;90.30;;;;;;5038231;28;20141;-82
2022/01/26 12:01:55;;;;;;;6.55;3.95;;;3.00;90.30;;;;;;4985850;28;20045;-83
2022/01/26 12:04:20;;;;;;;6.32;4.55;;;3.00;90.30;;;;;;5058702;28;20036;-82
2022/01/26 12:06:56;;;;;;;4.63;3.00;;;3.00;90.30;;;;;;4999159;28;20113;-82
2022/01/26 12:09:22;;;;;;;5.40;3.03;;;3.00;90.30;;;;;;5020643;28;20548;-82
2022/01/26 12:11:51;;;;;;;5.72;3.50;;;3.00;90.30;;;;;;5023800;28;20025;-83
2022/01/26 12:14:20;;;;;;;5.75;3.63;;;3.00;90.40;;;;;;5031305;28;20029;-82
2022/01/26 12:16:47;;;;;;;5.57;3.25;;;3.00;90.40;;;;;;5032374;28;20083;-82
2022/01/26 12:19:36;;;;;;;4.65;3.10;;;2.90;90.30;;;;;;5011002;28;20069;-82
2022/01/26 12:36:01;;;;;;;7.07;4.10;;;3.00;90.40;;;;;;5036169;28;20022;-82
2022/01/26 12:43:53;;;;;;;8.30;3.92;;;3.00;90.40;;;;;;5027759;28;20565;-82
2022/01/26 12:46:26;;;;;;;8.48;5.03;;;3.00;90.30;;;;;;5034211;28;20383;-80
2022/01/26 12:48:56;;;;;;;9.07;4.55;;;3.00;90.40;;;;;;5010512;28;20112;-81
2022/01/26 12:51:22;;;;;;;9.88;5.75;;;2.90;90.30;;;;;;5025874;28;21252;-81
2022/01/26 12:53:55;;;;;;;8.43;5.07;;;2.90;90.30;;;;;;5008479;28;20047;-81
2022/01/26 12:56:24;;;;;;;7.18;5.03;;;2.90;90.70;;;;;;5025536;28;20086;-81
2022/01/26 12:59:07;;;;;;;14.48;6.22;;;2.90;90.40;;;;;;5003629;28;20506;-80
2022/01/26 13:01:33;;;;;;;23.35;13.15;;;3.00;90.40;;;;;;5023074;28;20066;-81
2022/01/26 13:04:01;;;;;;;16.92;8.68;;;3.00;90.40;;;;;;5025918;28;20041;-81
2022/01/26 13:06:36;;;;;;;10.40;6.82;;;3.00;90.40;;;;;;5008965;28;20056;-81
2022/01/26 13:09:14;;;;;;;10.45;7.05;;;3.00;90.40;;;;;;5026633;28;20428;-80
2022/01/26 13:11:40;;;;;;;13.05;6.65;;;3.00;90.40;;;;;;5021461;28;20676;-81
2022/01/26 13:14:15;;;;;;;10.05;6.38;;;3.00;90.40;;;;;;5016179;28;20197;-81
2022/01/26 13:16:45;;;;;;;9.52;5.72;;;3.00;90.40;;;;;;5026069;28;20040;-81
2022/01/26 13:19:38;;;;;;;12.45;6.55;;;3.00;90.40;;;;;;5022674;28;20032;-81
2022/01/26 13:24:55;;;;;;;10.05;5.78;;;3.00;90.40;;;;;;5018989;28;20075;-80
2022/01/26 13:35:06;;;;;;;10.98;6.53;;;3.00;90.40;;;;;;5024943;28;20087;-81
2022/01/26 13:45:59;;;;;;;11.90;6.73;;;3.00;90.40;;;;;;4997275;28;20114;-81
2022/01/26 13:51:10;;;;;;;11.93;6.88;;;3.00;90.40;;;;;;4969868;28;20053;-80
2022/01/26 13:53:49;;;;;;;10.32;6.28;;;2.90;90.30;;;;;;5002785;28;20045;-80
2022/01/26 13:56:33;;;;;;;10.10;6.10;;;3.00;90.40;;;;;;4989445;28;20042;-80
2022/01/26 13:59:12;;;;;;;10.43;5.90;;;3.00;90.40;;;;;;4995543;28;20562;-80
2022/01/26 14:01:42;;;;;;;12.48;6.68;;;3.00;90.40;;;;;;5021502;28;20029;-80
2022/01/26 14:04:07;;;;;;;10.75;6.65;;;2.90;90.40;;;;;;4974790;28;20061;-80
2022/01/26 14:06:33;;;;;;;14.93;8.10;;;2.90;90.40;;;;;;5006760;28;20065;-80
2022/01/26 14:08:59;;;;;;;11.18;6.70;;;2.90;90.40;;;;;;5026386;28;20041;-80
2022/01/26 14:11:24;;;;;;;10.23;6.18;;;2.90;90.40;;;;;;5019004;28;20057;-80
2022/01/26 14:13:53;;;;;;;14.82;7.28;;;2.90;90.30;;;;;;4994895;28;20033;-80
2022/01/26 14:16:21;;;;;;;13.30;7.00;;;2.90;90.40;;;;;;4990974;28;20057;-80
2022/01/26 14:19:24;;;;;;;13.55;7.15;;;2.90;90.30;;;;;;4964906;28;20034;-80
2022/01/26 14:22:16;;;;;;;13.90;7.43;;;2.80;90.30;;;;;;5022647;28;20102;-80
2022/01/26 14:27:21;;;;;;;15.90;7.78;;;2.80;90.30;;;;;;4957703;28;20107;-79
2022/01/26 14:30:05;;;;;;;15.38;8.02;;;2.80;90.30;;;;;;5000514;28;20033;-80
2022/01/26 14:35:15;;;;;;;15.30;8.57;;;2.80;90.30;;;;;;5007925;28;20032;-80
2022/01/26 14:50:57;;;;;;;17.40;8.63;;;2.80;90.30;;;;;;5006305;28;20040;-80
2022/01/26 14:51:32;;;;;;;16.83;8.50;;;2.80;90.30;;;;;;4990027;28;20418;-81
2022/01/26 15:11:46;;;;;;;18.23;8.80;;;2.70;90.40;;;;;;5010615;28;20044;-80
2022/01/26 15:42:56;;;;;;;20.02;9.98;;;2.60;90.40;;;;;;5045902;28;20846;-80
2022/01/26 15:50:47;;;;;;;19.58;10.48;;;2.60;90.40;;;;;;5022127;28;20048;-80
2022/01/26 15:57:23;;;;;;;28.30;13.07;;;2.60;90.40;;;;;;5010878;28;20041;-80
2022/01/26 16:20:41;;;;;;;22.42;11.52;;;2.60;90.50;;;;;;5015194;28;20048;-80
2022/01/26 17:11:10;;;;;;;21.55;10.70;;;2.50;90.60;;;;;;5012549;28;20473;-81
2022/01/26 18:16:48;;;;;;;24.73;11.40;;;2.40;90.70;;;;;;5011479;28;20144;-81
2022/01/26 18:32:53;;;;;;;25.65;11.70;;;2.40;90.70;;;;;;4975633;28;20064;-81
2022/01/26 18:49:13;;;;;;;24.13;11.07;;;2.40;90.70;;;;;;4989087;28;20049;-81
2022/01/26 18:51:55;;;;;;;20.17;9.95;;;2.30;90.70;;;;;;5006683;28;20158;-81
2022/01/26 18:54:23;;;;;;;21.45;9.43;;;2.30;90.70;;;;;;4983825;28;20041;-81
2022/01/26 18:56:49;;;;;;;23.80;11.57;;;2.40;90.70;;;;;;5024631;28;20037;-81
2022/01/26 18:59:15;;;;;;;23.92;11.35;;;2.40;90.70;;;;;;4978831;28;20120;-81
2022/01/26 19:01:41;;;;;;;50.58;20.75;;;2.40;90.70;;;;;;5007045;28;20026;-81
2022/01/26 19:04:07;;;;;;;28.75;11.98;;;2.40;90.70;;;;;;4991312;28;20067;-82